Corbelia, Brazil
Current Conditions -  °F | °C
As of 7:00 PM on Monday 22 Dec 2014 (Local Time) from SBCA Reporting Station
Scattered Clouds Scattered Clouds  
Wind Chill: 75°   Ceiling: Unl
Heat Index: 75°   Visibility: 6mi
Dew Point: 64°   Wind: 9mph
Humidity: 69%   Direction: 180°S
Pressure: 29.91"   Gusts: NA
Location:  24.8°S, 53.3°W
Report Text: SBCA 222100Z 18008KT 9999 SCT030 SCT070 24/18 Q1013
Loading
Personal Weather Stations






























Interactive Weather Map New forecast layout! Learn more

10-Day Weather Forecast

Advertisements
Track Severe Weather on mobile